Time;durP1;ratioP1;P1;durP2;ratioP2;P2;SDS_P1;SDS_P2;PMS_P1;PMS_P2;Temp;Humidity;BMP_temperature;BMP_pressure;BME280_temperature;BME280_humidity;BME280_pressure;Samples;Min_cycle;Max_cycle;Signal;HPM_P1;HPM_P2
2023/07/17 00:00:53;;;;;;;1.95;1.25;;;30.20;99.50;;;;;;5088734;28;20195;-82
2023/07/17 00:03:24;;;;;;;1.88;1.50;;;29.80;99.70;;;;;;5094058;28;20198;-80
2023/07/17 00:05:57;;;;;;;2.40;1.20;;;29.90;99.00;;;;;;5094074;28;20215;-81
2023/07/17 00:08:28;;;;;;;3.00;1.50;;;29.70;99.90;;;;;;5094302;28;20196;-80
2023/07/17 00:10:59;;;;;;;3.55;1.70;;;29.60;98.60;;;;;;5091511;28;20202;-84
2023/07/17 00:13:30;;;;;;;2.42;1.42;;;29.70;98.90;;;;;;5092504;28;20231;-80
2023/07/17 00:16:03;;;;;;;1.77;1.58;;;29.50;99.20;;;;;;5092805;28;20235;-82
2023/07/17 00:18:34;;;;;;;2.50;1.80;;;29.50;98.50;;;;;;5089019;28;20259;-81
2023/07/17 00:21:05;;;;;;;2.05;1.60;;;29.50;99.10;;;;;;5088600;28;20195;-82
2023/07/17 00:23:36;;;;;;;1.60;1.50;;;29.70;99.40;;;;;;5092674;28;20202;-81
2023/07/17 00:26:07;;;;;;;2.60;1.70;;;29.80;99.20;;;;;;5092378;28;20226;-81
2023/07/17 00:28:38;;;;;;;1.60;1.50;;;29.70;98.80;;;;;;5093993;28;20218;-81
2023/07/17 00:31:10;;;;;;;2.08;1.75;;;29.70;99.20;;;;;;5089880;28;20199;-81
2023/07/17 00:33:41;;;;;;;2.05;1.77;;;29.60;99.30;;;;;;5092305;28;20198;-81
2023/07/17 00:36:12;;;;;;;2.50;1.90;;;29.70;99.20;;;;;;5092083;28;20230;-83
2023/07/17 00:38:42;;;;;;;3.30;1.63;;;29.80;98.20;;;;;;5088674;28;20574;-81
2023/07/17 00:41:13;;;;;;;3.63;1.55;;;29.70;97.40;;;;;;5091007;28;20207;-81
2023/07/17 00:43:44;;;;;;;2.85;1.50;;;29.80;97.80;;;;;;5092772;28;20195;-81
2023/07/17 00:46:17;;;;;;;1.75;1.60;;;29.70;98.40;;;;;;5091945;28;20236;-82
2023/07/17 00:48:48;;;;;;;1.67;1.30;;;29.80;97.00;;;;;;5091661;28;20195;-82
2023/07/17 00:51:19;;;;;;;1.58;1.48;;;29.80;97.60;;;;;;5090646;28;20199;-81
2023/07/17 00:53:51;;;;;;;1.45;1.30;;;29.80;98.60;;;;;;5092628;28;20199;-80
2023/07/17 00:56:22;;;;;;;1.73;1.60;;;30.00;96.90;;;;;;5089224;28;20195;-81
2023/07/17 00:58:53;;;;;;;1.85;1.63;;;29.90;97.70;;;;;;5092051;28;20207;-80
2023/07/17 01:01:26;;;;;;;2.58;1.85;;;30.00;99.10;;;;;;5090391;28;20676;-81
2023/07/17 01:03:59;;;;;;;3.22;1.50;;;30.20;97.70;;;;;;5093302;28;20574;-80
2023/07/17 01:06:30;;;;;;;1.77;1.40;;;30.60;96.90;;;;;;5091711;28;20688;-81
2023/07/17 01:09:01;;;;;;;1.75;1.48;;;30.80;96.60;;;;;;5091655;28;20209;-81
2023/07/17 01:11:32;;;;;;;1.50;1.40;;;31.00;96.40;;;;;;5090401;28;20555;-81
2023/07/17 01:14:03;;;;;;;2.47;1.60;;;31.20;96.10;;;;;;5091889;28;20205;-81
2023/07/17 01:16:37;;;;;;;1.67;1.58;;;31.00;96.00;;;;;;5089737;28;20567;-81
2023/07/17 01:19:08;;;;;;;1.52;1.42;;;31.40;96.20;;;;;;5087530;28;20194;-81
2023/07/17 01:21:44;;;;;;;2.10;1.90;;;31.80;96.40;;;;;;5090231;28;20277;-81
2023/07/17 01:24:17;;;;;;;2.92;1.63;;;32.50;95.80;;;;;;5091017;28;20302;-81
2023/07/17 01:26:48;;;;;;;2.55;1.80;;;32.70;95.30;;;;;;5091329;28;20265;-81
2023/07/17 01:29:19;;;;;;;2.60;1.80;;;32.70;96.10;;;;;;5091189;28;20336;-81
2023/07/17 01:31:52;;;;;;;2.83;1.67;;;32.50;95.10;;;;;;5089671;28;20194;-80
2023/07/17 01:34:22;;;;;;;2.75;1.10;;;32.50;95.50;;;;;;5091198;28;20285;-82
2023/07/17 01:36:53;;;;;;;3.00;1.10;;;32.20;94.70;;;;;;5091368;28;20195;-82
2023/07/17 01:39:26;;;;;;;2.05;1.00;;;31.50;95.90;;;;;;5087601;28;20206;-82
2023/07/17 01:41:56;;;;;;;3.05;1.23;;;31.60;95.80;;;;;;5090155;28;20191;-80
2023/07/17 01:44:28;;;;;;;0.88;0.68;;;31.30;95.20;;;;;;5090853;28;20675;-80
2023/07/17 01:46:59;;;;;;;0.85;0.82;;;30.90;95.90;;;;;;5090568;28;20700;-80
2023/07/17 01:49:29;;;;;;;1.73;0.95;;;30.60;96.20;;;;;;5094198;28;20205;-81
2023/07/17 01:52:00;;;;;;;0.75;0.75;;;30.40;96.20;;;;;;5090107;28;20277;-81
2023/07/17 01:54:33;;;;;;;2.15;0.90;;;30.10;96.70;;;;;;5092004;28;20199;-80
2023/07/17 01:57:04;;;;;;;1.73;0.80;;;29.80;97.00;;;;;;5089074;28;20225;-81
2023/07/17 01:59:35;;;;;;;2.70;0.82;;;29.90;96.80;;;;;;5086226;28;20225;-81
2023/07/17 02:02:06;;;;;;;0.90;0.80;;;29.90;97.50;;;;;;5088425;28;20206;-79
2023/07/17 02:04:37;;;;;;;2.65;0.80;;;30.00;96.60;;;;;;5090678;28;20248;-80
2023/07/17 02:07:08;;;;;;;1.42;0.70;;;29.90;96.20;;;;;;5090711;28;20223;-80
2023/07/17 02:09:40;;;;;;;1.90;0.82;;;29.70;96.20;;;;;;5091026;28;20277;-81
2023/07/17 02:12:11;;;;;;;0.82;0.82;;;29.40;96.20;;;;;;5087392;28;20260;-80
2023/07/17 02:14:42;;;;;;;0.80;0.73;;;28.80;97.30;;;;;;5090902;28;20195;-80
2023/07/17 02:17:13;;;;;;;1.73;0.47;;;28.30;97.00;;;;;;5087078;28;20201;-80
2023/07/17 02:19:43;;;;;;;1.67;0.70;;;27.80;97.40;;;;;;5090272;28;20206;-80
2023/07/17 02:22:14;;;;;;;1.05;0.55;;;27.40;97.90;;;;;;5088503;28;20695;-80
2023/07/17 02:24:47;;;;;;;0.87;0.70;;;27.10;98.30;;;;;;5090877;28;20206;-80
2023/07/17 02:27:18;;;;;;;0.53;0.53;;;26.90;98.60;;;;;;5080345;28;20262;-82
2023/07/17 02:29:48;;;;;;;0.83;0.60;;;26.60;98.90;;;;;;5090794;28;20195;-80
2023/07/17 02:32:19;;;;;;;0.73;0.60;;;26.40;99.10;;;;;;5086535;28;20230;-80
2023/07/17 02:34:50;;;;;;;0.60;0.50;;;26.20;99.60;;;;;;5086850;28;20617;-80
2023/07/17 02:37:21;;;;;;;2.50;0.90;;;26.00;99.90;;;;;;5085893;28;20294;-80
2023/07/17 02:39:53;;;;;;;0.83;0.70;;;25.90;99.90;;;;;;5090837;28;20231;-80
2023/07/17 02:42:24;;;;;;;0.50;0.50;;;25.70;99.90;;;;;;5088435;28;20210;-80
2023/07/17 02:44:55;;;;;;;2.53;0.70;;;25.60;99.90;;;;;;5090525;28;20203;-80
2023/07/17 02:47:26;;;;;;;0.73;0.60;;;25.40;99.90;;;;;;5088383;28;20231;-80
2023/07/17 02:49:57;;;;;;;0.53;0.53;;;25.30;99.90;;;;;;5090729;28;20202;-82
2023/07/17 02:52:28;;;;;;;1.53;0.80;;;25.00;99.90;;;;;;5085854;28;20195;-80
2023/07/17 02:55:01;;;;;;;0.77;0.60;;;24.90;99.90;;;;;;5091368;28;20230;-80
2023/07/17 02:57:34;;;;;;;1.53;0.70;;;24.80;99.90;;;;;;5094074;28;20197;-80
2023/07/17 03:00:08;;;;;;;3.97;0.73;;;24.70;99.90;;;;;;5094423;28;20284;-79
2023/07/17 03:02:41;;;;;;;1.10;0.60;;;24.60;99.90;;;;;;5092496;28;20203;-81
2023/07/17 03:05:12;;;;;;;0.77;0.50;;;24.50;99.90;;;;;;5093777;28;20203;-80
2023/07/17 03:07:45;;;;;;;0.60;0.60;;;24.30;99.90;;;;;;5093998;28;20306;-81
2023/07/17 03:10:17;;;;;;;2.00;0.70;;;24.20;99.90;;;;;;5094600;28;20209;-79
2023/07/17 03:12:48;;;;;;;0.87;0.73;;;24.10;99.90;;;;;;5093274;28;20608;-80
2023/07/17 03:15:19;;;;;;;0.80;0.50;;;24.00;99.90;;;;;;5094180;28;20199;-80
2023/07/17 03:17:50;;;;;;;0.97;0.70;;;23.90;99.90;;;;;;5090166;28;20197;-79
2023/07/17 03:20:21;;;;;;;1.23;0.70;;;23.80;99.90;;;;;;5093746;28;20195;-80
2023/07/17 03:22:52;;;;;;;2.83;0.57;;;23.70;99.90;;;;;;5092948;28;20218;-78
2023/07/17 03:25:25;;;;;;;1.33;0.70;;;23.60;99.90;;;;;;5092258;28;20283;-79
2023/07/17 03:27:56;;;;;;;1.43;0.67;;;23.50;99.90;;;;;;5093201;28;20230;-80
2023/07/17 03:30:27;;;;;;;1.53;0.67;;;23.40;99.90;;;;;;5092019;28;20206;-79
2023/07/17 03:32:57;;;;;;;4.50;1.10;;;23.30;99.90;;;;;;5092644;28;20210;-80
2023/07/17 03:35:28;;;;;;;1.57;1.03;;;23.20;99.90;;;;;;5090386;28;20203;-79
2023/07/17 03:37:59;;;;;;;2.33;1.10;;;23.10;99.90;;;;;;5089538;28;20209;-80
2023/07/17 03:40:32;;;;;;;1.80;0.70;;;23.00;99.90;;;;;;5093768;28;20192;-80
2023/07/17 03:43:03;;;;;;;1.83;0.60;;;22.80;99.90;;;;;;5092470;28;20203;-81
2023/07/17 03:45:34;;;;;;;1.40;0.70;;;22.60;99.90;;;;;;5093576;28;20195;-79
2023/07/17 03:48:05;;;;;;;0.70;0.50;;;22.50;99.90;;;;;;5093854;28;20699;-80
2023/07/17 03:50:35;;;;;;;1.07;0.53;;;22.30;99.90;;;;;;5094389;28;20200;-79
2023/07/17 03:53:06;;;;;;;1.90;0.67;;;22.20;99.90;;;;;;5089074;28;20206;-80
2023/07/17 03:55:40;;;;;;;0.90;0.60;;;22.20;99.90;;;;;;5089300;28;20191;-80
2023/07/17 03:58:11;;;;;;;1.60;0.60;;;22.00;99.90;;;;;;5093339;28;20207;-80
2023/07/17 04:00:42;;;;;;;1.73;0.70;;;21.90;99.90;;;;;;5093051;28;20211;-79
2023/07/17 04:03:13;;;;;;;6.00;0.90;;;21.80;99.90;;;;;;5091823;28;20203;-80
2023/07/17 04:05:45;;;;;;;1.23;0.70;;;21.70;99.90;;;;;;5092225;28;20560;-86
2023/07/17 04:08:16;;;;;;;1.70;0.60;;;21.60;99.90;;;;;;5096661;28;20217;-86
2023/07/17 04:10:49;;;;;;;4.37;1.10;;;21.60;99.90;;;;;;5100633;28;20233;-92
2023/07/17 04:13:19;;;;;;;1.40;0.80;;;21.50;99.90;;;;;;5092901;28;20697;-80
2023/07/17 04:15:51;;;;;;;1.30;0.60;;;21.40;99.90;;;;;;5093562;28;20236;-81
2023/07/17 04:18:22;;;;;;;1.13;0.70;;;21.30;99.90;;;;;;5091902;28;20249;-81
2023/07/17 04:20:53;;;;;;;1.80;0.77;;;21.20;99.90;;;;;;5091346;28;20203;-84
2023/07/17 04:23:24;;;;;;;2.23;0.73;;;21.10;99.90;;;;;;5084451;28;20620;-83
2023/07/17 04:25:56;;;;;;;1.57;0.93;;;21.10;99.90;;;;;;5085495;28;20207;-79
2023/07/17 04:28:27;;;;;;;1.43;0.80;;;21.10;99.90;;;;;;5085121;28;20231;-80
2023/07/17 04:30:58;;;;;;;0.90;0.70;;;20.90;99.90;;;;;;5090506;28;20691;-82
2023/07/17 04:33:29;;;;;;;6.57;1.60;;;20.90;99.90;;;;;;5088185;28;20229;-81
2023/07/17 04:36:00;;;;;;;2.30;1.30;;;20.80;99.90;;;;;;5087964;28;20221;-80
2023/07/17 04:38:30;;;;;;;3.10;1.43;;;20.70;99.90;;;;;;5090954;28;20623;-81
2023/07/17 04:41:03;;;;;;;3.63;1.43;;;20.60;99.90;;;;;;5089160;28;20203;-81
2023/07/17 04:43:34;;;;;;;8.23;4.43;;;20.50;99.90;;;;;;5090240;28;20207;-81
2023/07/17 04:46:04;;;;;;;2.70;1.30;;;20.50;99.90;;;;;;5089488;28;20211;-81
2023/07/17 04:48:36;;;;;;;3.10;1.20;;;20.50;99.90;;;;;;5083271;28;20842;-80
2023/07/17 04:51:07;;;;;;;3.27;1.30;;;20.40;99.90;;;;;;5091481;28;20237;-79
2023/07/17 04:53:38;;;;;;;4.67;1.33;;;20.30;99.90;;;;;;5088830;28;20213;-81
2023/07/17 04:56:10;;;;;;;3.87;1.77;;;20.30;99.90;;;;;;5089689;28;20206;-80
2023/07/17 04:58:41;;;;;;;2.07;1.30;;;20.20;99.90;;;;;;5091905;28;20579;-79
2023/07/17 05:01:12;;;;;;;2.20;1.10;;;20.10;99.90;;;;;;5090648;28;20195;-80
2023/07/17 05:03:43;;;;;;;6.07;2.10;;;20.10;99.90;;;;;;5090826;28;20203;-80
2023/07/17 05:06:15;;;;;;;2.50;0.97;;;20.00;99.90;;;;;;5091092;28;20199;-79
2023/07/17 05:08:46;;;;;;;2.23;1.10;;;20.00;99.90;;;;;;5091854;28;20570;-80
2023/07/17 05:11:18;;;;;;;5.80;2.27;;;19.90;99.90;;;;;;5090154;28;20203;-81
2023/07/17 05:13:49;;;;;;;13.57;3.70;;;19.90;99.90;;;;;;5088874;28;20248;-80
2023/07/17 05:16:20;;;;;;;3.87;1.90;;;19.80;99.90;;;;;;5089454;28;20199;-79
2023/07/17 05:18:51;;;;;;;3.17;1.63;;;19.50;99.90;;;;;;5089539;28;20235;-81
2023/07/17 05:21:22;;;;;;;4.50;1.90;;;19.40;99.90;;;;;;5088833;28;20225;-80
2023/07/17 05:23:53;;;;;;;3.43;1.40;;;19.30;99.90;;;;;;5088629;28;20211;-80
2023/07/17 05:26:25;;;;;;;3.07;1.30;;;19.30;99.90;;;;;;5086961;28;20199;-81
2023/07/17 05:28:56;;;;;;;5.03;1.30;;;19.20;99.90;;;;;;5088480;28;20253;-81
2023/07/17 05:31:27;;;;;;;3.03;1.30;;;19.20;99.90;;;;;;5088449;28;20905;-80
2023/07/17 05:33:58;;;;;;;2.90;1.63;;;19.10;99.90;;;;;;5089358;28;20590;-80
2023/07/17 05:36:29;;;;;;;2.23;1.20;;;19.10;99.90;;;;;;5071314;28;20709;-80
2023/07/17 05:39:00;;;;;;;4.43;1.30;;;19.10;99.90;;;;;;5085816;28;20197;-80
2023/07/17 05:41:33;;;;;;;5.57;2.63;;;19.10;99.90;;;;;;5088354;28;20202;-79
2023/07/17 05:44:04;;;;;;;2.10;0.87;;;19.00;99.90;;;;;;5087685;28;20214;-81
2023/07/17 05:46:35;;;;;;;2.53;1.30;;;18.90;99.90;;;;;;5090270;28;20195;-80
2023/07/17 05:49:06;;;;;;;2.13;0.97;;;18.80;99.90;;;;;;5084406;28;20773;-80
2023/07/17 05:51:37;;;;;;;2.00;1.20;;;18.80;99.90;;;;;;5089046;28;20195;-79
2023/07/17 05:54:08;;;;;;;2.43;1.40;;;18.70;99.90;;;;;;5089355;28;20657;-80
2023/07/17 05:56:40;;;;;;;2.73;1.30;;;18.60;99.90;;;;;;5089459;28;20195;-81
2023/07/17 05:59:11;;;;;;;5.03;1.27;;;18.60;99.90;;;;;;5086404;28;20203;-80
2023/07/17 06:01:43;;;;;;;3.50;1.63;;;18.40;99.90;;;;;;5084638;28;20288;-80
2023/07/17 06:04:14;;;;;;;2.73;1.00;;;18.30;99.90;;;;;;5089941;28;20234;-80
2023/07/17 06:06:45;;;;;;;7.03;1.73;;;18.30;99.90;;;;;;5088575;28;20279;-79
2023/07/17 06:09:16;;;;;;;3.70;1.93;;;18.20;99.90;;;;;;5088517;28;20233;-79
2023/07/17 06:11:48;;;;;;;2.60;1.20;;;18.20;99.90;;;;;;5087481;28;20190;-80
2023/07/17 06:14:20;;;;;;;2.70;1.37;;;18.10;99.90;;;;;;5090163;28;20195;-80
2023/07/17 06:16:50;;;;;;;2.73;1.50;;;18.10;99.90;;;;;;5090078;28;20576;-80
2023/07/17 06:19:21;;;;;;;3.43;1.40;;;18.00;99.90;;;;;;5087957;28;20202;-80
2023/07/17 06:21:52;;;;;;;3.70;1.40;;;18.00;99.90;;;;;;5089231;28;20238;-81
2023/07/17 06:24:23;;;;;;;1.87;1.00;;;18.00;99.90;;;;;;5090718;28;20249;-81
2023/07/17 06:26:56;;;;;;;2.30;1.40;;;17.90;99.90;;;;;;5090827;28;20199;-80
2023/07/17 06:29:27;;;;;;;3.77;2.00;;;17.90;99.90;;;;;;5096511;28;20233;-79
2023/07/17 06:31:58;;;;;;;3.47;1.60;;;17.80;99.90;;;;;;5098879;28;20195;-80
2023/07/17 06:34:28;;;;;;;2.73;1.53;;;17.70;99.90;;;;;;5094465;28;20199;-80
2023/07/17 06:36:59;;;;;;;3.20;1.17;;;17.70;99.90;;;;;;5094384;28;20199;-80
2023/07/17 06:39:30;;;;;;;2.33;1.00;;;17.70;99.90;;;;;;5094097;28;20673;-79
2023/07/17 06:42:02;;;;;;;3.10;1.23;;;17.70;99.90;;;;;;5088901;28;20226;-79
2023/07/17 06:44:33;;;;;;;2.43;1.00;;;17.60;99.90;;;;;;5089833;28;20206;-80
2023/07/17 06:47:04;;;;;;;2.23;1.20;;;17.50;99.90;;;;;;5093920;28;20630;-80
2023/07/17 06:49:50;;;;;;;3.23;1.20;;;17.50;99.90;;;;;;5094183;28;20223;-79
2023/07/17 06:52:21;;;;;;;3.80;1.30;;;17.40;99.90;;;;;;5085554;28;20294;-81
2023/07/17 06:54:52;;;;;;;2.90;1.30;;;17.40;99.90;;;;;;5093853;28;20274;-79
2023/07/17 06:57:35;;;;;;;2.13;1.20;;;17.30;99.90;;;;;;5092880;28;20203;-80
2023/07/17 07:00:07;;;;;;;2.13;1.20;;;17.30;99.90;;;;;;5088350;28;20206;-81
2023/07/17 07:02:38;;;;;;;1.93;1.10;;;17.20;99.90;;;;;;5091535;28;20206;-80
2023/07/17 07:05:10;;;;;;;2.50;1.13;;;17.20;99.90;;;;;;5091904;28;20207;-79
2023/07/17 07:07:41;;;;;;;3.43;1.57;;;17.30;99.90;;;;;;5092196;28;20286;-80
2023/07/17 07:10:12;;;;;;;3.47;1.20;;;17.30;99.90;;;;;;5092069;28;20227;-80
2023/07/17 07:12:45;;;;;;;1.10;1.00;;;17.20;99.90;;;;;;5091253;28;20746;-79
2023/07/17 07:15:16;;;;;;;2.50;1.17;;;17.20;99.90;;;;;;5093288;28;20694;-80
2023/07/17 07:17:47;;;;;;;2.57;1.30;;;17.10;99.90;;;;;;5089956;28;20253;-80
2023/07/17 07:20:18;;;;;;;5.00;1.50;;;17.10;99.90;;;;;;5085343;28;20203;-81
2023/07/17 07:22:49;;;;;;;4.17;1.30;;;17.20;99.90;;;;;;5092777;28;20652;-79
2023/07/17 07:25:21;;;;;;;2.63;1.27;;;17.20;99.90;;;;;;5093549;28;20234;-82
2023/07/17 07:27:53;;;;;;;3.93;1.60;;;17.10;99.90;;;;;;5093459;28;20685;-81
2023/07/17 07:30:24;;;;;;;2.40;1.23;;;17.00;99.90;;;;;;5093549;28;20699;-81
2023/07/17 07:32:55;;;;;;;2.73;1.27;;;17.00;99.90;;;;;;5092502;28;20195;-79
2023/07/17 07:35:26;;;;;;;4.07;1.67;;;16.90;99.90;;;;;;5093502;28;20225;-80
2023/07/17 07:37:57;;;;;;;2.27;1.30;;;16.90;99.90;;;;;;5089276;28;20194;-80
2023/07/17 07:40:28;;;;;;;3.30;1.20;;;16.90;99.90;;;;;;5093132;28;20573;-80
2023/07/17 07:43:01;;;;;;;2.20;1.30;;;16.80;99.90;;;;;;5092830;28;20191;-79
2023/07/17 07:45:32;;;;;;;3.43;1.20;;;16.80;99.90;;;;;;5093186;28;20191;-80
2023/07/17 07:48:02;;;;;;;2.67;1.10;;;16.80;99.90;;;;;;5090688;28;21054;-81
2023/07/17 07:50:33;;;;;;;3.27;1.50;;;16.70;99.90;;;;;;5092888;28;20645;-81
2023/07/17 07:53:04;;;;;;;2.67;1.27;;;16.70;99.90;;;;;;5092107;28;20201;-80
2023/07/17 07:55:35;;;;;;;2.47;1.20;;;16.80;99.90;;;;;;5090785;28;20278;-80
2023/07/17 07:58:07;;;;;;;2.63;1.23;;;16.80;99.90;;;;;;5092764;28;20249;-79
2023/07/17 08:00:39;;;;;;;2.23;1.40;;;16.80;99.90;;;;;;5092937;28;20385;-81
2023/07/17 08:03:10;;;;;;;3.03;1.30;;;16.90;99.90;;;;;;5091694;28;20668;-80
2023/07/17 08:05:40;;;;;;;3.60;1.33;;;16.80;99.90;;;;;;5092740;28;20661;-80
2023/07/17 08:08:12;;;;;;;3.33;1.20;;;16.80;99.90;;;;;;5092675;28;20249;-80
2023/07/17 08:10:44;;;;;;;2.17;1.17;;;16.70;99.90;;;;;;5093076;28;20715;-80
2023/07/17 08:13:17;;;;;;;1.33;0.90;;;16.70;99.90;;;;;;5092062;28;20191;-80
2023/07/17 08:15:48;;;;;;;2.93;1.13;;;16.70;99.90;;;;;;5091797;28;20203;-80
2023/07/17 08:18:19;;;;;;;2.83;1.40;;;16.70;99.90;;;;;;5092355;28;20258;-80
2023/07/17 08:20:49;;;;;;;3.23;1.50;;;16.60;99.90;;;;;;5092283;28;20199;-82
2023/07/17 08:23:27;;;;;;;2.67;1.37;;;16.60;99.90;;;;;;5092310;28;20684;-80
2023/07/17 08:25:58;;;;;;;2.10;1.20;;;16.60;99.90;;;;;;5091285;28;20609;-81
2023/07/17 08:28:31;;;;;;;1.83;1.10;;;16.50;99.90;;;;;;5092421;28;20206;-81
2023/07/17 08:31:03;;;;;;;3.67;1.37;;;16.50;99.90;;;;;;5091715;28;20272;-80
2023/07/17 08:33:33;;;;;;;4.07;1.17;;;16.30;99.90;;;;;;5092555;28;20683;-79
2023/07/17 08:36:04;;;;;;;2.00;1.20;;;16.10;99.90;;;;;;5094337;28;20218;-81
2023/07/17 08:38:35;;;;;;;2.00;1.33;;;16.10;99.90;;;;;;5088700;28;20195;-80
2023/07/17 08:41:08;;;;;;;3.60;1.20;;;16.20;99.90;;;;;;5091486;28;20234;-79
2023/07/17 08:43:41;;;;;;;2.67;1.47;;;16.20;99.90;;;;;;5092714;28;20559;-80
2023/07/17 08:46:13;;;;;;;1.90;1.40;;;16.20;99.90;;;;;;5092547;28;20207;-80
2023/07/17 08:48:45;;;;;;;3.77;1.33;;;16.20;99.90;;;;;;5092091;28;20202;-79
2023/07/17 08:51:16;;;;;;;2.63;1.40;;;16.20;99.90;;;;;;5090357;28;20306;-79
2023/07/17 08:53:48;;;;;;;1.93;1.30;;;16.20;99.90;;;;;;5092088;28;20286;-80
2023/07/17 08:56:20;;;;;;;2.90;1.60;;;16.20;99.90;;;;;;5092062;28;20199;-81
2023/07/17 08:58:55;;;;;;;2.33;1.20;;;16.20;99.90;;;;;;5088322;28;20203;-79
2023/07/17 09:01:27;;;;;;;3.50;1.33;;;16.20;99.90;;;;;;5086960;28;20201;-79
2023/07/17 09:03:59;;;;;;;3.30;1.43;;;16.20;99.90;;;;;;5088134;28;20256;-80
2023/07/17 09:06:30;;;;;;;3.40;1.63;;;16.20;99.90;;;;;;5091882;28;20206;-81
2023/07/17 09:09:02;;;;;;;2.87;1.30;;;16.20;99.90;;;;;;5091622;28;20607;-80
2023/07/17 09:11:33;;;;;;;2.97;1.30;;;16.30;99.90;;;;;;5090604;28;20235;-81
2023/07/17 09:14:10;;;;;;;3.03;1.30;;;16.30;99.90;;;;;;5091620;28;20664;-81
2023/07/17 09:16:41;;;;;;;2.17;1.30;;;16.40;99.90;;;;;;5091568;28;20195;-80
2023/07/17 09:19:16;;;;;;;2.13;1.17;;;16.50;99.90;;;;;;5091153;28;20198;-82
2023/07/17 09:21:47;;;;;;;3.23;1.00;;;16.60;99.90;;;;;;5090499;28;20282;-82
2023/07/17 09:24:23;;;;;;;2.10;1.27;;;16.60;99.90;;;;;;5091492;28;20202;-81
2023/07/17 09:26:58;;;;;;;2.33;1.30;;;16.60;99.90;;;;;;5088292;28;20293;-80
2023/07/17 09:29:31;;;;;;;3.10;1.10;;;16.70;99.90;;;;;;5088205;28;20202;-81
2023/07/17 09:32:18;;;;;;;2.23;1.40;;;16.70;99.90;;;;;;5086810;28;20275;-81
2023/07/17 09:34:55;;;;;;;3.80;1.10;;;16.70;99.90;;;;;;5089407;28;20199;-81
2023/07/17 09:37:32;;;;;;;2.60;1.10;;;16.70;99.90;;;;;;5090983;28;20201;-81
2023/07/17 09:40:07;;;;;;;2.73;1.33;;;16.80;99.90;;;;;;5091348;28;20210;-81
2023/07/17 09:42:38;;;;;;;2.67;1.60;;;16.80;99.90;;;;;;5090363;28;20190;-80
2023/07/17 09:45:11;;;;;;;2.23;1.23;;;16.90;99.90;;;;;;5090881;28;20211;-80
2023/07/17 09:47:42;;;;;;;3.53;1.37;;;16.90;99.90;;;;;;5086624;28;20199;-80
2023/07/17 09:50:15;;;;;;;1.40;1.17;;;16.90;99.90;;;;;;5091046;28;20227;-82
2023/07/17 09:52:47;;;;;;;1.70;1.40;;;17.00;99.90;;;;;;5087142;28;20199;-80
2023/07/17 09:55:19;;;;;;;1.27;0.80;;;17.10;99.90;;;;;;5090389;28;20203;-81
2023/07/17 09:57:52;;;;;;;2.13;1.17;;;17.10;99.90;;;;;;5091267;28;20197;-80
2023/07/17 10:00:26;;;;;;;2.53;1.23;;;17.10;99.90;;;;;;5090454;28;20294;-80
2023/07/17 10:03:05;;;;;;;2.10;1.20;;;17.10;99.90;;;;;;5090243;28;20190;-79
2023/07/17 10:05:38;;;;;;;2.37;1.60;;;17.10;99.90;;;;;;5090010;28;20195;-80
2023/07/17 10:08:10;;;;;;;3.97;1.33;;;17.10;99.90;;;;;;5091397;28;20207;-81
2023/07/17 10:10:42;;;;;;;2.53;1.20;;;17.20;99.90;;;;;;5090617;28;20656;-80
2023/07/17 10:13:13;;;;;;;2.77;1.33;;;17.20;99.90;;;;;;5089865;28;20203;-80
2023/07/17 10:15:46;;;;;;;2.43;1.33;;;17.10;99.90;;;;;;5090801;28;20563;-81
2023/07/17 10:18:17;;;;;;;3.30;1.40;;;17.10;99.90;;;;;;5091023;28;20198;-80
2023/07/17 10:20:57;;;;;;;2.13;1.43;;;17.10;99.90;;;;;;5090493;28;20205;-84
2023/07/17 10:23:29;;;;;;;2.83;1.10;;;17.00;99.90;;;;;;5083806;28;20573;-81
2023/07/17 10:26:09;;;;;;;1.73;1.03;;;17.00;99.90;;;;;;5090614;28;20203;-81
2023/07/17 10:28:41;;;;;;;2.80;1.63;;;17.00;99.90;;;;;;5088456;28;20201;-80
2023/07/17 10:31:18;;;;;;;1.70;1.07;;;16.90;99.90;;;;;;5089563;28;20350;-80
2023/07/17 10:33:51;;;;;;;1.40;1.30;;;16.70;99.90;;;;;;5090830;28;20656;-80
2023/07/17 10:36:40;;;;;;;1.97;1.40;;;16.70;99.90;;;;;;5090939;28;20277;-79
2023/07/17 10:39:17;;;;;;;2.17;1.10;;;16.70;99.90;;;;;;5089431;28;20540;-82
2023/07/17 10:41:51;;;;;;;2.10;1.23;;;16.70;99.90;;;;;;5089828;28;20195;-81
2023/07/17 10:44:24;;;;;;;1.40;1.30;;;16.80;99.90;;;;;;5090578;28;20206;-80
2023/07/17 10:46:57;;;;;;;2.60;1.33;;;16.80;99.90;;;;;;5090489;28;20205;-81
2023/07/17 10:49:28;;;;;;;1.30;1.20;;;16.80;99.90;;;;;;5090449;28;20203;-79
2023/07/17 10:51:59;;;;;;;1.40;1.30;;;16.90;99.90;;;;;;5091055;28;20234;-81
2023/07/17 10:54:30;;;;;;;1.40;1.30;;;16.90;99.90;;;;;;5091688;28;20195;-80
2023/07/17 10:57:00;;;;;;;1.60;1.33;;;16.90;99.90;;;;;;5088885;28;20199;-81
2023/07/17 10:59:33;;;;;;;1.40;1.30;;;16.80;99.90;;;;;;5086370;28;20227;-80
2023/07/17 11:02:05;;;;;;;1.47;1.37;;;16.80;99.90;;;;;;5090197;28;20269;-79
2023/07/17 11:04:36;;;;;;;1.93;1.30;;;16.80;99.90;;;;;;5090328;28;20231;-80
2023/07/17 11:07:11;;;;;;;1.37;1.27;;;16.80;99.90;;;;;;5090443;28;20201;-80
2023/07/17 11:09:46;;;;;;;1.43;1.33;;;16.70;99.90;;;;;;5090382;28;20197;-80
2023/07/17 11:12:18;;;;;;;2.43;1.43;;;16.60;99.90;;;;;;5089515;28;20653;-80
2023/07/17 11:14:53;;;;;;;1.53;1.43;;;16.40;99.90;;;;;;5091929;28;20295;-80
2023/07/17 11:17:26;;;;;;;2.73;1.13;;;16.40;99.90;;;;;;5093950;28;20659;-81
2023/07/17 11:20:03;;;;;;;2.30;1.30;;;16.40;99.90;;;;;;5093718;28;20202;-80
2023/07/17 11:22:34;;;;;;;1.50;1.40;;;16.30;99.90;;;;;;5092691;28;20302;-79
2023/07/17 11:25:06;;;;;;;2.47;1.63;;;16.40;99.90;;;;;;5093305;28;20202;-80
2023/07/17 11:27:37;;;;;;;1.70;1.53;;;16.50;99.90;;;;;;5093725;28;20195;-80
2023/07/17 11:30:19;;;;;;;1.50;1.40;;;16.60;99.90;;;;;;5093494;28;20192;-80
2023/07/17 11:33:01;;;;;;;1.30;1.20;;;16.70;99.90;;;;;;5089712;28;20269;-79
2023/07/17 11:35:43;;;;;;;1.77;1.40;;;16.60;99.90;;;;;;5091272;28;20202;-80
2023/07/17 11:38:15;;;;;;;2.33;1.60;;;16.50;99.90;;;;;;5093657;28;20298;-81
2023/07/17 11:40:57;;;;;;;1.40;1.30;;;16.50;99.90;;;;;;5092846;28;20230;-81
2023/07/17 11:43:30;;;;;;;1.30;1.20;;;16.60;99.90;;;;;;5093468;28;20202;-79
2023/07/17 11:46:03;;;;;;;2.33;1.67;;;16.50;99.90;;;;;;5093187;28;20994;-80
2023/07/17 11:48:36;;;;;;;1.70;1.40;;;16.60;99.90;;;;;;5093383;28;20198;-80
2023/07/17 11:51:07;;;;;;;1.60;1.50;;;16.60;99.90;;;;;;5090280;28;20199;-81
2023/07/17 11:53:40;;;;;;;1.50;1.40;;;16.70;99.90;;;;;;5089971;28;20222;-79
2023/07/17 11:56:10;;;;;;;2.03;1.37;;;16.60;99.90;;;;;;5091909;28;20207;-81
2023/07/17 11:58:53;;;;;;;1.40;1.30;;;16.60;99.90;;;;;;5093230;28;20199;-80
2023/07/17 12:01:24;;;;;;;1.33;1.23;;;16.60;99.90;;;;;;5089369;28;20290;-79
2023/07/17 12:03:56;;;;;;;1.60;1.50;;;16.40;99.90;;;;;;5093370;28;20199;-79
2023/07/17 12:06:27;;;;;;;4.40;1.70;;;16.40;99.90;;;;;;5091466;28;20199;-79
2023/07/17 12:08:58;;;;;;;1.53;1.43;;;16.40;99.90;;;;;;5088626;28;20576;-80
2023/07/17 12:11:29;;;;;;;1.90;1.70;;;16.40;99.90;;;;;;5091655;28;20223;-80
2023/07/17 12:14:00;;;;;;;2.03;1.57;;;16.40;99.90;;;;;;5092769;28;20566;-80
2023/07/17 12:16:30;;;;;;;1.90;1.70;;;16.50;99.90;;;;;;5092869;28;20195;-81
2023/07/17 12:19:04;;;;;;;1.70;1.57;;;16.60;99.90;;;;;;5092549;28;20195;-80
2023/07/17 12:21:35;;;;;;;3.30;2.00;;;16.60;99.90;;;;;;5091859;28;20282;-80
2023/07/17 12:24:10;;;;;;;1.90;1.80;;;16.50;99.90;;;;;;5092839;28;20238;-80
2023/07/17 12:26:43;;;;;;;2.37;1.70;;;16.50;99.90;;;;;;5091878;28;20276;-80
2023/07/17 12:29:14;;;;;;;2.13;1.90;;;16.50;99.90;;;;;;5092580;28;20203;-81
2023/07/17 12:31:45;;;;;;;2.60;2.03;;;16.50;99.90;;;;;;5091479;28;20755;-81
2023/07/17 12:34:17;;;;;;;1.77;1.67;;;16.30;99.90;;;;;;5092336;28;20206;-81
2023/07/17 12:36:48;;;;;;;2.83;2.30;;;16.30;99.90;;;;;;5092839;28;20225;-80
2023/07/17 12:39:22;;;;;;;2.77;2.03;;;16.10;99.90;;;;;;5092704;28;20213;-80
2023/07/17 12:41:53;;;;;;;2.63;2.40;;;16.00;99.90;;;;;;5091423;28;20203;-80
2023/07/17 12:44:23;;;;;;;2.57;2.37;;;16.00;99.90;;;;;;5092215;28;20206;-80
2023/07/17 12:46:54;;;;;;;2.40;2.20;;;16.00;99.90;;;;;;5092599;28;20205;-80
2023/07/17 12:49:27;;;;;;;2.53;2.33;;;16.00;99.90;;;;;;5088261;28;20684;-80
2023/07/17 12:51:58;;;;;;;2.37;2.20;;;15.90;99.90;;;;;;5091271;28;20323;-79
2023/07/17 12:54:28;;;;;;;2.83;2.30;;;15.90;99.90;;;;;;5092535;28;20245;-80
2023/07/17 12:56:59;;;;;;;2.70;2.50;;;16.00;99.90;;;;;;5092187;28;20206;-81
2023/07/17 12:59:30;;;;;;;3.00;2.63;;;15.80;99.90;;;;;;5092185;28;20207;-80
2023/07/17 13:02:01;;;;;;;2.53;2.30;;;15.90;99.90;;;;;;5091537;28;20636;-80
2023/07/17 13:04:34;;;;;;;3.97;2.90;;;15.80;99.90;;;;;;5092322;28;20199;-80
2023/07/17 13:07:05;;;;;;;2.83;2.53;;;15.80;99.90;;;;;;5089351;28;20664;-79
2023/07/17 13:09:36;;;;;;;3.10;2.80;;;15.80;99.90;;;;;;5089786;28;20200;-80
2023/07/17 13:12:09;;;;;;;4.87;2.90;;;15.80;99.90;;;;;;5094501;28;20223;-79